createdAt,value
2018-05-01T14:28:00.214Z,1008.42
2018-05-01T14:28:59.712Z,1008.39
2018-05-01T14:30:58.653Z,1008.40
2018-05-01T14:31:57.272Z,1008.38
2018-05-01T14:33:53.234Z,1008.36
2018-05-01T14:34:53.217Z,1008.32
2018-05-01T14:36:51.680Z,1008.46
2018-05-01T14:37:51.342Z,1008.41
2018-05-01T14:39:47.766Z,1008.35
2018-05-01T14:40:47.786Z,1008.48
2018-05-01T14:42:43.197Z,1008.45
2018-05-01T14:43:43.725Z,1008.45
2018-05-01T14:45:39.145Z,1008.45
2018-05-01T14:46:40.096Z,1008.42
2018-05-01T14:48:38.089Z,1008.44
2018-05-01T14:49:38.590Z,1008.45
2018-05-01T14:51:33.043Z,1008.41
2018-05-01T14:52:33.033Z,1008.45
2018-05-01T14:54:29.991Z,1008.43
2018-05-01T14:55:28.988Z,1008.40
2018-05-01T14:57:25.947Z,1008.41
2018-05-01T14:58:24.935Z,1008.42
2018-05-01T15:00:24.392Z,1008.43
2018-05-01T15:01:23.042Z,1008.42
2018-05-01T15:03:19.518Z,1008.43
2018-05-01T15:04:19.929Z,1008.46
2018-05-01T15:06:17.431Z,1008.55
2018-05-01T15:07:16.892Z,1008.45
2018-05-01T15:09:14.864Z,1008.37
2018-05-01T15:10:14.849Z,1008.46
2018-05-01T15:12:12.818Z,1008.42
2018-05-01T15:13:12.810Z,1008.47
2018-05-01T15:15:08.786Z,1008.43
2018-05-01T15:16:08.818Z,1008.47
2018-05-01T15:18:05.752Z,1008.44
2018-05-01T15:19:04.767Z,1008.44
2018-05-01T15:21:01.708Z,1008.45
2018-05-01T15:22:00.699Z,1008.45
2018-05-01T15:23:59.172Z,1008.42
2018-05-01T15:24:58.784Z,1008.44
2018-05-01T15:26:56.771Z,1008.44
2018-05-01T15:27:57.245Z,1008.41
2018-05-01T15:29:54.914Z,1008.45
2018-05-01T15:30:54.841Z,1008.39
2018-05-01T15:32:51.793Z,1008.34
2018-05-01T15:33:51.276Z,1008.36
2018-05-01T15:35:46.676Z,1008.41
2018-05-01T15:36:46.733Z,1008.40
2018-05-01T15:38:43.205Z,1008.44
2018-05-01T15:39:42.682Z,1008.44
2018-05-01T15:41:39.704Z,1008.34
2018-05-01T15:42:38.605Z,1008.28
2018-05-01T15:44:34.555Z,1008.40
2018-05-01T15:45:34.573Z,1008.44
2018-05-01T15:47:32.536Z,1008.41
2018-05-01T15:48:33.049Z,1008.36
2018-05-01T15:50:30.425Z,1008.42
2018-05-01T15:51:30.517Z,1008.38
2018-05-01T15:53:30.930Z,1008.40
2018-05-01T15:54:31.393Z,1008.41
2018-05-01T15:56:30.356Z,1008.39
2018-05-01T15:57:28.975Z,1008.40
2018-05-01T15:59:26.953Z,1008.45
2018-05-01T16:00:27.951Z,1008.43
2018-05-01T16:02:25.398Z,1008.41
2018-05-01T16:03:24.892Z,1008.44
2018-05-01T16:05:23.854Z,1008.40
2018-05-01T16:06:23.834Z,1008.37
2018-05-01T16:08:19.337Z,1008.35
2018-05-01T16:09:18.814Z,1008.36
2018-05-01T16:11:18.307Z,1008.38
2018-05-01T16:12:16.743Z,1008.37
2018-05-01T16:14:16.762Z,1008.38
2018-05-01T16:15:14.837Z,1008.39
2018-05-01T16:17:11.315Z,1008.39
2018-05-01T16:18:11.291Z,1008.34
2018-05-01T16:20:09.258Z,1008.41
2018-05-01T16:21:09.245Z,1008.38
2018-05-01T16:23:06.701Z,1008.36
2018-05-01T16:24:06.702Z,1008.37
2018-05-01T16:26:05.667Z,1008.30
2018-05-01T16:27:04.612Z,1008.32
2018-05-01T16:29:03.599Z,1008.39
2018-05-01T16:30:02.709Z,1008.35
2018-05-01T16:32:01.169Z,1008.37
2018-05-01T16:33:00.643Z,1008.33
2018-05-01T16:34:59.096Z,1008.30
2018-05-01T16:35:58.639Z,1008.27
2018-05-01T16:37:56.551Z,1008.29
2018-05-01T16:38:56.552Z,1008.25
2018-05-01T16:40:54.539Z,1008.24
2018-05-01T16:41:54.504Z,1008.26
2018-05-01T16:43:52.530Z,1008.26
2018-05-01T16:44:52.520Z,1008.28
2018-05-01T16:46:50.412Z,1008.29
2018-05-01T16:47:50.409Z,1008.30
2018-05-01T16:49:48.399Z,1008.29
2018-05-01T16:50:48.381Z,1008.33
2018-05-01T16:52:46.832Z,1008.40
2018-05-01T16:53:46.846Z,1008.43
2018-05-01T16:55:42.306Z,1008.54
2018-05-01T16:56:42.258Z,1008.62
2018-05-01T16:58:38.215Z,1008.72
2018-05-01T16:59:38.719Z,1008.65
2018-05-01T17:01:35.201Z,1008.61
2018-05-01T17:03:50.126Z,1008.65
2018-05-01T17:04:50.119Z,1008.61
2018-05-01T17:06:46.588Z,1008.61
2018-05-01T17:07:46.096Z,1008.56
2018-05-01T17:09:44.556Z,1008.51
2018-05-01T17:10:44.172Z,1008.46
2018-05-01T17:12:42.117Z,1008.41
2018-05-01T17:13:42.611Z,1008.42
2018-05-01T17:15:38.574Z,1008.46
2018-05-01T17:16:38.059Z,1008.43
2018-05-01T17:18:36.150Z,1008.42
2018-05-01T17:19:36.120Z,1008.43
2018-05-01T17:21:34.245Z,1008.46
2018-05-01T17:22:34.248Z,1008.42
2018-05-01T17:24:32.685Z,1008.46
2018-05-01T17:25:33.249Z,1008.40
2018-05-01T17:27:32.799Z,1008.39
2018-05-01T17:28:32.802Z,1008.43
2018-05-01T17:30:30.765Z,1008.40
2018-05-01T17:31:30.734Z,1008.45
2018-05-01T17:33:26.676Z,1008.39
2018-05-01T17:34:28.192Z,1008.41
2018-05-01T17:36:24.668Z,1008.41
2018-05-01T17:37:24.613Z,1008.41
2018-05-01T17:39:22.591Z,1008.41
2018-05-01T17:40:22.582Z,1008.40
2018-05-01T17:42:18.507Z,1008.42
2018-05-01T17:43:18.535Z,1008.46
2018-05-01T17:45:16.652Z,1008.44
2018-05-01T17:46:17.552Z,1008.42
2018-05-01T17:48:12.554Z,1008.42
2018-05-01T17:49:12.559Z,1008.43
2018-05-01T17:51:10.505Z,1008.42
2018-05-01T17:52:10.488Z,1008.41
2018-05-01T17:54:08.952Z,1008.43
2018-05-01T17:55:08.415Z,1008.44
2018-05-01T17:57:06.408Z,1008.42
2018-05-01T17:58:06.361Z,1008.44
2018-05-01T18:00:04.837Z,1008.44
2018-05-01T18:01:04.315Z,1008.49
2018-05-01T18:03:02.257Z,1008.55
2018-05-01T18:04:02.260Z,1008.52
2018-05-01T18:06:01.720Z,1008.49
2018-05-01T18:07:01.217Z,1008.55
2018-05-01T18:08:58.400Z,1008.50
2018-05-01T18:09:58.412Z,1008.49
2018-05-01T18:11:56.803Z,1008.51
2018-05-01T18:12:55.883Z,1008.51
2018-05-01T18:14:56.136Z,1008.54
2018-05-01T18:15:55.590Z,1008.52
2018-05-01T18:17:54.072Z,1008.52
2018-05-01T18:18:53.682Z,1008.57
2018-05-01T18:20:53.636Z,1008.57
2018-05-01T18:21:52.661Z,1008.58
2018-05-01T18:23:49.729Z,1008.58
2018-05-01T18:24:47.705Z,1008.59
2018-05-01T18:26:46.657Z,1008.57
2018-05-01T18:27:45.799Z,1008.56
2018-05-01T18:29:41.721Z,1008.54
2018-05-01T18:30:41.779Z,1008.55
2018-05-01T18:32:37.690Z,1008.56
2018-05-01T18:33:38.197Z,1008.53
2018-05-01T18:35:34.165Z,1008.54
2018-05-01T18:36:33.578Z,1008.54
2018-05-01T18:38:30.535Z,1008.58
2018-05-01T18:39:30.036Z,1008.61
2018-05-01T18:41:25.514Z,1008.58
2018-05-01T18:42:25.475Z,1008.63
2018-05-01T18:44:22.953Z,1008.63
2018-05-01T18:45:22.409Z,1008.60
2018-05-01T18:47:18.349Z,1008.55
2018-05-01T18:48:19.857Z,1008.53
2018-05-01T18:50:14.819Z,1008.55
2018-05-01T18:51:14.286Z,1008.54
2018-05-01T18:53:10.237Z,1008.56
2018-05-01T18:54:10.256Z,1008.51
2018-05-01T18:56:09.192Z,1008.48
2018-05-01T18:57:08.151Z,1008.49
2018-05-01T18:59:09.635Z,1008.51
2018-05-01T19:00:08.584Z,1008.58
2018-05-01T19:02:05.580Z,1008.60
2018-05-01T19:03:05.038Z,1008.61
2018-05-01T19:05:01.521Z,1008.59
2018-05-01T19:06:00.535Z,1008.65
2018-05-01T19:07:56.972Z,1008.65
2018-05-01T19:08:56.468Z,1008.65
2018-05-01T19:10:52.441Z,1008.66
2018-05-01T19:11:52.405Z,1008.66
2018-05-01T19:13:48.398Z,1008.73
2018-05-01T19:14:48.386Z,1008.71
2018-05-01T19:16:45.834Z,1008.70
2018-05-01T19:17:44.353Z,1008.76
2018-05-01T19:19:40.263Z,1008.80
2018-05-01T19:20:40.268Z,1008.84
2018-05-01T19:22:36.221Z,1008.86
2018-05-01T19:23:36.186Z,1008.83
2018-05-01T19:25:33.139Z,1008.86
2018-05-01T19:26:32.106Z,1008.88
2018-05-01T19:28:28.076Z,1008.92
2018-05-01T19:29:28.045Z,1008.95
2018-05-01T19:31:24.491Z,1008.92
2018-05-01T19:32:24.003Z,1008.98
2018-05-01T19:34:20.018Z,1008.97
2018-05-01T19:35:20.450Z,1008.95
2018-05-01T19:37:17.384Z,1008.98
2018-05-01T19:38:16.808Z,1008.98
2018-05-01T19:40:13.857Z,1008.97
2018-05-01T19:41:12.346Z,1008.99
2018-05-01T19:43:10.767Z,1008.99
2018-05-01T19:44:09.767Z,1009.00
2018-05-01T19:46:06.220Z,1009.01
2018-05-01T19:47:05.679Z,1009.06
2018-05-01T19:49:02.135Z,1009.11
2018-05-01T19:50:02.628Z,1009.07
2018-05-01T19:51:57.610Z,1009.05
2018-05-01T19:52:59.090Z,1009.03
2018-05-01T19:54:53.526Z,1009.05
2018-05-01T19:55:53.487Z,1009.03
2018-05-01T19:57:49.972Z,1009.06
2018-05-01T19:58:49.435Z,1009.09
2018-05-01T20:00:45.886Z,1009.10
2018-05-01T20:01:45.909Z,1009.05
2018-05-01T20:03:41.831Z,1009.08
2018-05-01T20:04:41.354Z,1009.07
2018-05-01T20:06:37.284Z,1009.05
2018-05-01T20:07:37.252Z,1009.06
2018-05-01T20:09:34.219Z,1009.15
2018-05-01T20:10:33.184Z,1009.15
2018-05-01T20:12:29.640Z,1009.15
2018-05-01T20:13:29.145Z,1009.15
2018-05-01T20:15:25.126Z,1009.16
2018-05-01T20:16:25.123Z,1009.14
2018-05-01T20:18:21.055Z,1009.11
2018-05-01T20:19:21.589Z,1009.12
2018-05-01T20:21:18.031Z,1009.16
2018-05-01T20:22:17.935Z,1009.10
2018-05-01T20:24:12.964Z,1009.17
2018-05-01T20:25:12.995Z,1009.18
2018-05-01T20:27:08.988Z,1009.21
2018-05-01T20:28:08.900Z,1009.16
2018-05-01T20:30:04.891Z,1009.21
2018-05-01T20:31:04.864Z,1009.19
2018-05-01T20:33:00.772Z,1009.25
2018-05-01T20:34:00.779Z,1009.22
2018-05-01T20:35:56.689Z,1009.23
2018-05-01T20:36:57.230Z,1009.25
2018-05-01T20:38:52.626Z,1009.33
2018-05-01T20:39:52.615Z,1009.32
2018-05-01T20:41:47.561Z,1009.35
2018-05-01T20:42:47.574Z,1009.36
2018-05-01T20:44:42.996Z,1009.38
2018-05-01T20:45:42.992Z,1009.41
2018-05-01T20:47:38.968Z,1009.36
2018-05-01T20:48:38.921Z,1009.41
2018-05-01T20:50:34.873Z,1009.40
2018-05-01T20:51:34.861Z,1009.37
2018-05-01T20:53:30.825Z,1009.40
2018-05-01T20:54:31.811Z,1009.39
2018-05-01T20:56:27.302Z,1009.33
2018-05-01T20:57:27.264Z,1009.37
2018-05-01T20:59:22.668Z,1009.34
2018-05-01T21:00:23.184Z,1009.36
2018-05-01T21:02:18.628Z,1009.33
2018-05-01T21:03:18.618Z,1009.31
2018-05-01T21:05:14.539Z,1009.33
2018-05-01T21:06:14.507Z,1009.34
2018-05-01T21:08:10.957Z,1009.35
2018-05-01T21:09:10.435Z,1009.34
2018-05-01T21:11:06.357Z,1009.33
2018-05-01T21:12:06.890Z,1009.29
2018-05-01T21:14:06.820Z,1009.30
2018-05-01T21:15:06.808Z,1009.27
2018-05-01T21:17:03.752Z,1009.33
2018-05-01T21:18:02.766Z,1009.36
2018-05-01T21:19:58.717Z,1009.36
2018-05-01T21:20:58.742Z,1009.36
2018-05-01T21:22:54.657Z,1009.34
2018-05-01T21:23:54.662Z,1009.33
2018-05-01T21:25:51.621Z,1009.29
2018-05-01T21:26:51.556Z,1009.31
2018-05-01T21:28:48.587Z,1009.32
2018-05-01T21:29:47.526Z,1009.35
2018-05-01T21:31:43.484Z,1009.37
2018-05-01T21:32:43.968Z,1009.35
2018-05-01T21:34:39.917Z,1009.36
2018-05-01T21:35:39.385Z,1009.36
2018-05-01T21:37:35.847Z,1009.36
2018-05-01T21:38:35.340Z,1009.37
2018-05-01T21:40:31.281Z,1009.36
2018-05-01T21:41:31.271Z,1009.38
2018-05-01T21:43:27.755Z,1009.35
2018-05-01T21:44:27.255Z,1009.32
2018-05-01T21:46:23.704Z,1009.36
2018-05-01T21:47:23.691Z,1009.34
2018-05-01T21:49:19.156Z,1009.39
2018-05-01T21:50:19.623Z,1009.38
2018-05-01T21:52:16.091Z,1009.37
2018-05-01T21:53:16.068Z,1009.39
2018-05-01T21:55:12.030Z,1009.35
2018-05-01T21:56:12.003Z,1009.33
2018-05-01T21:58:08.476Z,1009.35
2018-05-01T21:59:07.928Z,1009.34
2018-05-01T22:01:04.891Z,1009.37
2018-05-01T22:02:03.881Z,1009.40
2018-05-01T22:03:59.804Z,1009.42
2018-05-01T22:04:59.811Z,1009.44
2018-05-01T22:06:55.745Z,1009.44
2018-05-01T22:07:55.761Z,1009.46
2018-05-01T22:09:52.195Z,1009.51
2018-05-01T22:10:51.692Z,1009.54
2018-05-01T22:12:48.130Z,1009.59
2018-05-01T22:13:47.611Z,1009.57
2018-05-01T22:15:44.517Z,1009.57
2018-05-01T22:16:44.532Z,1009.59
2018-05-01T22:18:42.999Z,1009.58
2018-05-01T22:19:43.478Z,1009.60
2018-05-01T22:21:39.047Z,1009.62
2018-05-01T22:22:38.546Z,1009.59
2018-05-01T22:24:34.472Z,1009.54
2018-05-01T22:25:34.464Z,1009.52
2018-05-01T22:27:30.441Z,1009.51
2018-05-01T22:28:30.454Z,1009.52
2018-05-01T22:30:26.886Z,1009.51
2018-05-01T22:31:26.359Z,1009.54
2018-05-01T22:33:24.299Z,1009.53
2018-05-01T22:34:24.363Z,1009.53
2018-05-01T22:36:20.758Z,1009.51
2018-05-01T22:37:20.206Z,1009.49
2018-05-01T22:39:16.155Z,1009.52
2018-05-01T22:40:16.651Z,1009.50
2018-05-01T22:42:12.052Z,1009.53
2018-05-01T22:43:12.570Z,1009.52
2018-05-01T22:45:08.529Z,1009.51
2018-05-01T22:46:07.994Z,1009.57
2018-05-01T22:48:04.431Z,1009.56
2018-05-01T22:49:03.911Z,1009.56
2018-05-01T22:51:00.354Z,1009.56
2018-05-01T22:51:59.863Z,1009.57
2018-05-01T22:53:56.301Z,1009.54
2018-05-01T22:54:55.771Z,1009.55
2018-05-01T22:56:51.735Z,1009.55
2018-05-01T22:57:52.259Z,1009.54
2018-05-01T22:59:47.657Z,1009.53
2018-05-01T23:00:47.663Z,1009.49
2018-05-01T23:02:44.124Z,1009.55
2018-05-01T23:03:43.577Z,1009.56
2018-05-01T23:05:40.044Z,1009.56
2018-05-01T23:06:40.050Z,1009.56
2018-05-01T23:08:35.443Z,1009.62
2018-05-01T23:09:35.450Z,1009.59
2018-05-01T23:11:31.370Z,1009.61
2018-05-01T23:12:31.381Z,1009.58
2018-05-01T23:14:27.365Z,1009.60
2018-05-01T23:15:27.359Z,1009.63
2018-05-01T23:17:23.275Z,1009.58
2018-05-01T23:18:23.791Z,1009.59
2018-05-01T23:20:19.245Z,1009.50
2018-05-01T23:21:19.209Z,1009.52
2018-05-01T23:23:16.195Z,1009.52
2018-05-01T23:24:15.155Z,1009.52
2018-05-01T23:26:11.601Z,1009.48
2018-05-01T23:27:11.077Z,1009.51
2018-05-01T23:29:08.509Z,1009.43
2018-05-01T23:30:07.494Z,1009.47
2018-05-01T23:32:04.947Z,1009.49
2018-05-01T23:33:05.436Z,1009.48
2018-05-01T23:35:01.897Z,1009.47
2018-05-01T23:36:01.391Z,1009.46
2018-05-01T23:37:57.821Z,1009.44
2018-05-01T23:38:56.826Z,1009.45
2018-05-01T23:40:54.785Z,1009.48
2018-05-01T23:41:54.792Z,1009.47
2018-05-01T23:43:53.250Z,1009.44
2018-05-01T23:44:52.964Z,1009.48
2018-05-01T23:46:48.880Z,1009.44
2018-05-01T23:47:48.826Z,1009.46
2018-05-01T23:49:45.225Z,1009.42
2018-05-01T23:50:44.732Z,1009.47
2018-05-01T23:52:40.650Z,1009.39
2018-05-01T23:53:40.654Z,1009.38
2018-05-01T23:55:38.094Z,1009.35
2018-05-01T23:56:36.657Z,1009.38
2018-05-01T23:58:36.101Z,1009.38
2018-05-01T23:59:34.593Z,1009.39
